Time,TemperatureF,DewpointF,PressureIn,WindDirection,WindDirectionDegrees,WindSpeedMPH,WindSpeedGustMPH,Humidity,HourlyPrecipIn,Conditions,Clouds,dailyrainin,SoftwareType,DateUTC
2013-05-31 00:00:00,74.7,54.2,0.00,WSW,248,0.0,0.0,49,0.00,,,0.00,Weather View 32 v70,2013-05-31 04:00:00,
2013-05-31 00:15:00,73.9,55.1,0.00,WSW,248,0.0,0.0,52,0.00,,,0.00,Weather View 32 v70,2013-05-31 04:15:00,
2013-05-31 00:30:00,73.6,55.3,0.00,WSW,248,0.0,0.0,53,0.00,,,0.00,Weather View 32 v70,2013-05-31 04:30:00,
2013-05-31 00:45:00,73.6,55.9,0.00,WSW,248,0.0,0.0,54,0.00,,,0.00,Weather View 32 v70,2013-05-31 04:45:00,
2013-05-31 01:00:00,73.4,55.7,0.00,WSW,248,0.0,0.0,54,0.00,,,0.00,Weather View 32 v70,2013-05-31 05:00:00,
2013-05-31 01:15:00,73.0,56.4,0.00,WSW,249,0.0,0.0,56,0.00,,,0.00,Weather View 32 v70,2013-05-31 05:15:00,
2013-05-31 01:30:00,72.5,57.3,0.00,WSW,248,0.0,0.0,59,0.00,,,0.00,Weather View 32 v70,2013-05-31 05:30:00,
2013-05-31 01:45:00,72.1,57.9,0.00,WSW,248,0.0,0.0,61,0.00,,,0.00,Weather View 32 v70,2013-05-31 05:45:00,
2013-05-31 02:00:00,71.6,57.8,0.00,WSW,249,0.0,0.0,62,0.00,,,0.00,Weather View 32 v70,2013-05-31 06:00:00,
2013-05-31 02:15:00,71.8,58.0,0.00,WSW,248,0.0,0.0,62,0.00,,,0.00,Weather View 32 v70,2013-05-31 06:15:00,
2013-05-31 02:30:00,71.2,58.4,0.00,WSW,248,0.0,0.0,64,0.00,,,0.00,Weather View 32 v70,2013-05-31 06:30:00,
2013-05-31 02:45:00,71.1,58.2,0.00,WSW,248,0.0,0.0,64,0.00,,,0.00,Weather View 32 v70,2013-05-31 06:45:00,
2013-05-31 03:00:00,70.7,58.7,0.00,WSW,248,0.0,0.0,66,0.00,,,0.00,Weather View 32 v70,2013-05-31 07:00:00,
2013-05-31 03:15:00,70.7,59.2,0.00,WSW,249,0.0,0.0,67,0.00,,,0.00,Weather View 32 v70,2013-05-31 07:15:00,
2013-05-31 03:30:00,70.3,59.2,0.00,WSW,248,0.0,0.0,68,0.00,,,0.00,Weather View 32 v70,2013-05-31 07:30:00,
2013-05-31 03:45:00,70.0,59.7,0.00,WSW,248,0.0,0.0,70,0.00,,,0.00,Weather View 32 v70,2013-05-31 07:45:00,
2013-05-31 04:00:00,69.8,59.9,0.00,WSW,249,0.0,0.0,71,0.00,,,0.00,Weather View 32 v70,2013-05-31 08:00:00,
2013-05-31 04:15:00,69.4,60.0,0.00,WSW,249,0.0,0.0,72,0.00,,,0.00,Weather View 32 v70,2013-05-31 08:15:00,
2013-05-31 04:30:00,69.3,60.2,0.00,WSW,248,0.0,0.0,73,0.00,,,0.00,Weather View 32 v70,2013-05-31 08:30:00,
2013-05-31 04:45:00,69.1,60.0,0.00,WSW,248,0.0,0.0,73,0.00,,,0.00,Weather View 32 v70,2013-05-31 08:45:00,
2013-05-31 05:00:00,68.9,60.6,0.00,WSW,248,0.0,0.0,75,0.00,,,0.00,Weather View 32 v70,2013-05-31 09:00:00,
2013-05-31 05:15:00,68.5,61.7,0.00,WSW,248,0.0,0.0,79,0.00,,,0.00,Weather View 32 v70,2013-05-31 09:15:00,
2013-05-31 05:30:00,68.2,61.8,0.00,WSW,248,0.0,0.0,80,0.00,,,0.00,Weather View 32 v70,2013-05-31 09:30:00,
2013-05-31 05:45:00,68.7,61.9,0.00,WSW,248,0.0,0.0,79,0.00,,,0.00,Weather View 32 v70,2013-05-31 09:45:00,
2013-05-31 06:00:00,68.9,61.7,0.00,WSW,248,0.0,0.0,78,0.00,,,0.00,Weather View 32 v70,2013-05-31 10:00:00,
2013-05-31 06:15:00,68.9,62.1,0.00,WSW,248,0.0,0.0,79,0.00,,,0.00,Weather View 32 v70,2013-05-31 10:15:00,
2013-05-31 06:30:00,68.7,61.9,0.00,WSW,248,0.0,0.0,79,0.00,,,0.00,Weather View 32 v70,2013-05-31 10:30:00,
2013-05-31 06:45:00,68.7,62.3,0.00,WSW,248,0.0,0.0,80,0.00,,,0.00,Weather View 32 v70,2013-05-31 10:45:00,
2013-05-31 07:00:00,68.9,62.8,0.00,WSW,248,0.0,0.0,81,0.00,,,0.00,Weather View 32 v70,2013-05-31 11:00:00,
2013-05-31 07:15:00,69.4,63.3,0.00,WSW,249,0.0,0.0,81,0.00,,,0.00,Weather View 32 v70,2013-05-31 11:15:00,
2013-05-31 07:30:00,70.3,63.9,0.00,WSW,248,0.0,0.0,80,0.00,,,0.00,Weather View 32 v70,2013-05-31 11:30:00,
2013-05-31 07:45:00,71.6,62.8,0.00,WSW,248,0.0,0.0,74,0.00,,,0.00,Weather View 32 v70,2013-05-31 11:45:00,
2013-05-31 08:00:00,72.7,62.3,0.00,WSW,248,0.0,0.0,70,0.00,,,0.00,Weather View 32 v70,2013-05-31 12:00:00,
2013-05-31 08:15:00,73.8,62.5,0.00,WSW,248,0.0,0.0,68,0.00,,,0.00,Weather View 32 v70,2013-05-31 12:15:00,
2013-05-31 08:30:00,75.2,62.1,0.00,WSW,248,0.0,0.0,64,0.00,,,0.00,Weather View 32 v70,2013-05-31 12:30:00,
2013-05-31 08:45:00,77.2,61.7,0.00,WSW,245,0.0,0.0,59,0.00,,,0.00,Weather View 32 v70,2013-05-31 12:45:00,
2013-05-31 09:00:00,79.0,60.9,0.00,WNW,292,0.0,4.0,54,0.00,,,0.00,Weather View 32 v70,2013-05-31 13:00:00,
2013-05-31 09:15:00,80.6,61.8,0.00,SSW,207,0.0,4.0,53,0.00,,,0.00,Weather View 32 v70,2013-05-31 13:15:00,
2013-05-31 09:30:00,81.9,60.2,0.00,West,260,0.0,4.0,48,0.00,,,0.00,Weather View 32 v70,2013-05-31 13:30:00,
2013-05-31 09:45:00,82.8,59.8,0.00,WSW,244,0.0,4.0,46,0.00,,,0.00,Weather View 32 v70,2013-05-31 13:45:00,
2013-05-31 10:00:00,83.7,58.7,0.00,West,280,0.0,0.0,43,0.00,,,0.00,Weather View 32 v70,2013-05-31 14:00:00,
2013-05-31 10:15:00,84.9,61.8,0.00,SW,232,0.0,3.0,46,0.00,,,0.00,Weather View 32 v70,2013-05-31 14:15:00,
2013-05-31 10:30:00,85.8,59.3,0.00,WNW,286,0.0,3.0,41,0.00,,,0.00,Weather View 32 v70,2013-05-31 14:30:00,
2013-05-31 10:45:00,86.4,56.2,0.00,WNW,284,0.0,4.0,36,0.00,,,0.00,Weather View 32 v70,2013-05-31 14:45:00,
2013-05-31 11:00:00,87.3,54.5,0.00,WSW,245,3.0,4.0,33,0.00,,,0.00,Weather View 32 v70,2013-05-31 15:00:00,
2013-05-31 11:15:00,88.2,56.2,0.00,SE,134,0.0,4.0,34,0.00,,,0.00,Weather View 32 v70,2013-05-31 15:15:00,
2013-05-31 11:30:00,88.7,54.9,0.00,SSE,155,0.0,4.0,32,0.00,,,0.00,Weather View 32 v70,2013-05-31 15:30:00,
2013-05-31 11:45:00,89.4,55.6,0.00,SW,235,3.0,4.0,32,0.00,,,0.00,Weather View 32 v70,2013-05-31 15:45:00,
2013-05-31 12:00:00,89.8,52.2,0.00,West,262,2.0,4.0,28,0.00,,,0.00,Weather View 32 v70,2013-05-31 16:00:00,
2013-05-31 12:15:00,89.6,53.0,0.00,ENE,74,0.0,5.0,29,0.00,,,0.00,Weather View 32 v70,2013-05-31 16:15:00,
2013-05-31 12:30:00,90.5,52.8,0.00,West,278,4.0,8.0,28,0.00,,,0.00,Weather View 32 v70,2013-05-31 16:30:00,
2013-05-31 12:45:00,90.9,53.1,0.00,SW,221,3.0,8.0,28,0.00,,,0.00,Weather View 32 v70,2013-05-31 16:45:00,
2013-05-31 13:00:00,89.6,49.0,0.00,SE,136,0.0,8.0,25,0.00,,,0.00,Weather View 32 v70,2013-05-31 17:00:00,
2013-05-31 13:15:00,89.4,51.9,0.00,SW,221,5.0,8.0,28,0.00,,,0.00,Weather View 32 v70,2013-05-31 17:15:00,
2013-05-31 13:30:00,90.7,53.0,0.00,SW,225,4.0,8.0,28,0.00,,,0.00,Weather View 32 v70,2013-05-31 17:30:00,
2013-05-31 13:45:00,90.1,52.5,0.00,WSW,239,3.0,8.0,28,0.00,,,0.00,Weather View 32 v70,2013-05-31 17:45:00,
2013-05-31 14:00:00,90.9,53.1,0.00,South,184,0.0,8.0,28,0.00,,,0.00,Weather View 32 v70,2013-05-31 18:00:00,
2013-05-31 14:15:00,90.7,53.0,0.00,WSW,241,0.0,8.0,28,0.00,,,0.00,Weather View 32 v70,2013-05-31 18:15:00,
2013-05-31 14:30:00,89.2,53.6,0.00,South,169,3.0,8.0,30,0.00,,,0.00,Weather View 32 v70,2013-05-31 18:30:00,
2013-05-31 14:45:00,90.1,52.5,0.00,SSW,195,3.0,7.0,28,0.00,,,0.00,Weather View 32 v70,2013-05-31 18:45:00,
2013-05-31 15:00:00,90.7,49.9,0.00,South,181,4.0,6.0,25,0.00,,,0.00,Weather View 32 v70,2013-05-31 19:00:00,
2013-05-31 15:15:00,89.8,46.9,0.00,West,268,2.0,6.0,23,0.00,,,0.00,Weather View 32 v70,2013-05-31 19:15:00,
2013-05-31 15:30:00,88.3,51.0,0.00,WSW,245,3.0,6.0,28,0.00,,,0.00,Weather View 32 v70,2013-05-31 19:30:00,
2013-05-31 15:45:00,88.3,51.0,0.00,SSE,150,4.0,6.0,28,0.00,,,0.00,Weather View 32 v70,2013-05-31 19:45:00,
2013-05-31 16:00:00,89.8,51.2,0.00,SW,230,3.0,6.0,27,0.00,,,0.00,Weather View 32 v70,2013-05-31 20:00:00,
2013-05-31 16:05:00,89.8,51.2,0.00,SW,230,3.0,6.0,27,0.00,,,0.00,Weather View 32 v70,2013-05-31 20:05:00,
2013-05-31 16:15:00,91.0,51.3,0.00,NE,45,3.0,6.0,26,0.00,,,0.00,Weather View 32 v70,2013-05-31 20:15:00,
2013-05-31 16:30:00,91.4,50.5,0.00,South,181,4.0,6.0,25,0.00,,,0.00,Weather View 32 v70,2013-05-31 20:30:00,
2013-05-31 16:45:00,91.4,45.8,0.00,WSW,257,3.0,8.0,21,0.00,,,0.00,Weather View 32 v70,2013-05-31 20:45:00,
2013-05-31 17:00:00,91.4,48.3,0.00,West,277,2.0,9.0,23,0.00,,,0.00,Weather View 32 v70,2013-05-31 21:00:00,
2013-05-31 17:05:00,91.4,48.3,0.00,West,277,2.0,9.0,23,0.00,,,0.00,Weather View 32 v70,2013-05-31 21:05:00,
2013-05-31 17:15:00,90.7,49.9,0.00,WNW,289,8.0,9.0,25,0.00,,,0.00,Weather View 32 v70,2013-05-31 21:15:00,
2013-05-31 17:30:00,90.0,51.4,0.00,SSE,147,2.0,9.0,27,0.00,,,0.00,Weather View 32 v70,2013-05-31 21:30:00,
2013-05-31 17:45:00,87.8,44.1,0.00,WSW,257,3.0,9.0,22,0.00,,,0.00,Weather View 32 v70,2013-05-31 21:45:00,
2013-05-31 18:00:00,87.1,45.8,0.00,East,96,5.0,9.0,24,0.00,,,0.00,Weather View 32 v70,2013-05-31 22:00:00,
2013-05-31 18:06:00,87.1,45.8,0.00,East,96,5.0,9.0,24,0.00,,,0.00,Weather View 32 v70,2013-05-31 22:06:00,
2013-05-31 18:15:00,87.4,50.2,0.00,SW,230,0.0,9.0,28,0.00,,,0.00,Weather View 32 v70,2013-05-31 22:15:00,
2013-05-31 18:30:00,87.4,47.2,0.00,NE,38,2.0,5.0,25,0.00,,,0.00,Weather View 32 v70,2013-05-31 22:30:00,
2013-05-31 18:45:00,86.2,47.2,0.00,SSE,155,0.0,5.0,26,0.00,,,0.00,Weather View 32 v70,2013-05-31 22:45:00,
2013-05-31 19:00:00,85.3,49.3,0.00,South,176,0.0,5.0,29,0.00,,,0.00,Weather View 32 v70,2013-05-31 23:00:00,
2013-05-31 19:06:00,85.3,49.3,0.00,South,176,0.0,5.0,29,0.00,,,0.00,Weather View 32 v70,2013-05-31 23:06:00,
2013-05-31 19:15:00,85.1,49.2,0.00,South,176,0.0,4.0,29,0.00,,,0.00,Weather View 32 v70,2013-05-31 23:15:00,
2013-05-31 19:30:00,84.6,48.7,0.00,South,176,0.0,4.0,29,0.00,,,0.00,Weather View 32 v70,2013-05-31 23:30:00,
2013-05-31 19:45:00,83.7,48.8,0.00,South,176,0.0,3.0,30,0.00,,,0.00,Weather View 32 v70,2013-05-31 23:45:00,
2013-05-31 20:00:00,82.9,49.1,0.00,South,176,0.0,0.0,31,0.00,,,0.00,Weather View 32 v70,2013-06-01 00:00:00,
2013-05-31 20:07:00,82.9,49.1,0.00,South,176,0.0,0.0,31,0.00,,,0.00,Weather View 32 v70,2013-06-01 00:07:00,
2013-05-31 20:15:00,82.2,49.3,0.00,South,176,0.0,0.0,32,0.00,,,0.00,Weather View 32 v70,2013-06-01 00:15:00,
2013-05-31 20:30:00,81.5,49.5,0.00,South,176,0.0,0.0,33,0.00,,,0.00,Weather View 32 v70,2013-06-01 00:30:00,
2013-05-31 20:45:00,80.8,48.1,0.00,South,183,0.0,3.0,32,0.00,,,0.00,Weather View 32 v70,2013-06-01 00:45:00,
2013-05-31 21:00:00,80.2,49.2,0.00,South,183,0.0,3.0,34,0.00,,,0.00,Weather View 32 v70,2013-06-01 01:00:00,
2013-05-31 21:08:00,80.2,49.2,0.00,South,183,0.0,3.0,34,0.00,,,0.00,Weather View 32 v70,2013-06-01 01:08:00,
2013-05-31 21:15:00,79.3,49.2,0.00,South,184,0.0,3.0,35,0.00,,,0.00,Weather View 32 v70,2013-06-01 01:15:00,
2013-05-31 21:30:00,79.2,49.1,0.00,South,189,0.0,3.0,35,0.00,,,0.00,Weather View 32 v70,2013-06-01 01:30:00,
2013-05-31 21:45:00,79.0,48.9,0.00,SSW,199,0.0,3.0,35,0.00,,,0.00,Weather View 32 v70,2013-06-01 01:45:00,
2013-05-31 22:00:00,78.8,49.5,0.00,West,277,0.0,5.0,36,0.00,,,0.00,Weather View 32 v70,2013-06-01 02:00:00,
2013-05-31 22:08:00,78.8,49.5,0.00,West,277,0.0,5.0,36,0.00,,,0.00,Weather View 32 v70,2013-06-01 02:08:00,
2013-05-31 22:15:00,78.3,49.8,0.00,WSW,253,3.0,5.0,37,0.00,,,0.00,Weather View 32 v70,2013-06-01 02:15:00,
2013-05-31 22:30:00,78.1,48.9,0.00,West,260,0.0,5.0,36,0.00,,,0.00,Weather View 32 v70,2013-06-01 02:30:00,
2013-05-31 22:45:00,77.9,49.5,0.00,WSW,249,0.0,5.0,37,0.00,,,0.00,Weather View 32 v70,2013-06-01 02:45:00,
2013-05-31 23:00:00,77.2,49.5,0.00,West,272,3.0,5.0,38,0.00,,,0.00,Weather View 32 v70,2013-06-01 03:00:00,
2013-05-31 23:09:00,77.2,49.5,0.00,West,272,3.0,5.0,38,0.00,,,0.00,Weather View 32 v70,2013-06-01 03:09:00,
2013-05-31 23:15:00,76.8,51.3,0.00,West,272,0.0,5.0,41,0.00,,,0.00,Weather View 32 v70,2013-06-01 03:15:00,
2013-05-31 23:30:00,76.3,51.4,0.00,West,272,0.0,5.0,42,0.00,,,0.00,Weather View 32 v70,2013-06-01 03:30:00,
2013-05-31 23:45:00,75.9,51.7,0.00,West,276,0.0,3.0,43,0.00,,,0.00,Weather View 32 v70,2013-06-01 03:45:00,